Time;durP1;ratioP1;P1;durP2;ratioP2;P2;SDS_P1;SDS_P2;PMS_P1;PMS_P2;Temp;Humidity;BMP_temperature;BMP_pressure;BME280_temperature;BME280_humidity;BME280_pressure;Samples;Min_cycle;Max_cycle;Signal;HPM_P1;HPM_P2
2021/08/07 00:12:00;;;;;;;13.33;5.33;;;;;;;15.60;100.00;99181.91;714207;1177;113830;-75
2021/08/07 00:27:03;;;;;;;6.30;3.73;;;;;;;15.60;100.00;99192.48;714022;1200;115873;-72
2021/08/07 00:42:05;;;;;;;7.55;4.50;;;;;;;15.62;100.00;99189.64;714227;1202;115284;-74
2021/08/07 00:57:07;;;;;;;6.65;3.10;;;;;;;15.58;100.00;99214.83;714083;1176;113984;-74
2021/08/07 01:12:28;;;;;;;7.33;4.15;;;;;;;15.43;100.00;99228.97;714341;1203;114048;-75
2021/08/07 01:27:35;;;;;;;6.73;4.80;;;;;;;15.41;100.00;99230.17;714295;1199;115174;-74
2021/08/07 01:42:37;;;;;;;9.07;4.67;;;;;;;15.42;100.00;99226.52;714069;1199;113910;-75
2021/08/07 01:57:45;;;;;;;8.53;5.45;;;;;;;15.39;100.00;99229.56;714238;1200;114627;-75
2021/08/07 02:12:48;;;;;;;8.50;6.10;;;;;;;15.35;100.00;99242.33;714067;1202;115315;-74
2021/08/07 02:27:52;;;;;;;12.13;6.73;;;;;;;15.30;100.00;99245.53;714067;1200;114196;-75
2021/08/07 02:42:55;;;;;;;8.45;5.75;;;;;;;15.29;100.00;99253.66;714137;1200;115615;-75
2021/08/07 02:57:58;;;;;;;8.10;5.00;;;;;;;15.27;100.00;99266.25;714070;1200;115500;-74
2021/08/07 03:13:02;;;;;;;8.27;5.00;;;;;;;15.26;100.00;99277.83;714031;1198;115644;-75
2021/08/07 03:28:05;;;;;;;8.10;5.08;;;;;;;15.26;100.00;99280.47;714379;1177;114686;-74
2021/08/07 03:43:08;;;;;;;10.53;5.67;;;;;;;15.25;100.00;99290.20;714092;1177;113942;-72
2021/08/07 03:58:13;;;;;;;7.30;4.60;;;;;;;15.31;100.00;99288.64;714384;1174;114332;-73
2021/08/07 04:13:15;;;;;;;7.77;4.57;;;;;;;15.34;100.00;99298.02;714641;1202;114553;-73
2021/08/07 04:28:17;;;;;;;11.15;4.93;;;;;;;15.45;100.00;99294.84;714779;1205;113786;-73
2021/08/07 04:43:19;;;;;;;10.18;4.65;;;;;;;15.58;100.00;99294.13;714207;1200;114189;-73
2021/08/07 04:58:21;;;;;;;11.50;4.67;;;;;;;15.75;100.00;99300.75;714223;1200;113978;-76
2021/08/07 05:13:24;;;;;;;8.13;4.28;;;;;;;16.02;100.00;99308.91;714313;1190;114087;-72
2021/08/07 05:28:26;;;;;;;9.13;4.27;;;;;;;16.29;100.00;99327.56;714557;1200;113590;-76
2021/08/07 05:43:29;;;;;;;6.20;4.68;;;;;;;16.62;100.00;99330.34;714922;1200;113765;-84
2021/08/07 05:58:37;;;;;;;12.63;5.55;;;;;;;17.19;100.00;99331.97;714844;1205;114748;-77
2021/08/07 06:13:39;;;;;;;11.03;6.28;;;;;;;17.61;100.00;99340.56;715667;1200;114426;-79
2021/08/07 06:28:42;;;;;;;11.07;3.83;;;;;;;17.90;100.00;99343.81;719018;1203;114933;-79
2021/08/07 06:43:45;;;;;;;5.08;3.03;;;;;;;18.39;100.00;99354.96;724801;1174;113741;-79
2021/08/07 06:58:47;;;;;;;6.33;3.27;;;;;;;18.87;100.00;99364.37;716843;1177;113760;-81
2021/08/07 07:13:49;;;;;;;6.05;3.20;;;;;;;19.29;100.00;99376.23;716224;1199;114432;-81
2021/08/07 07:28:51;;;;;;;4.70;2.23;;;;;;;20.44;100.00;99394.70;715361;1200;113703;-72
2021/08/07 07:43:53;;;;;;;2.48;1.88;;;;;;;20.75;100.00;99387.64;714470;1202;114031;-73
2021/08/07 07:58:55;;;;;;;4.33;1.83;;;;;;;21.00;100.00;99402.71;716427;1202;114206;-77
2021/08/07 08:13:58;;;;;;;3.73;2.13;;;;;;;21.87;100.00;99409.47;715538;1200;114945;-69
2021/08/07 08:29:00;;;;;;;3.38;2.03;;;;;;;22.35;100.00;99415.61;714312;1200;113786;-75
2021/08/07 08:44:04;;;;;;;4.85;1.85;;;;;;;22.59;97.35;99422.58;717964;1187;113957;-76
2021/08/07 08:59:07;;;;;;;3.60;1.70;;;;;;;23.40;90.70;99451.17;714724;1202;114053;-74
2021/08/07 09:14:19;;;;;;;5.43;1.88;;;;;;;23.57;87.78;99451.20;714777;1200;113643;-74
2021/08/07 09:29:38;;;;;;;3.43;1.80;;;;;;;23.89;82.49;99453.36;717870;1201;113615;-73
2021/08/07 09:44:41;;;;;;;3.73;1.80;;;;;;;24.51;81.06;99461.50;714110;1177;113950;-71
2021/08/07 09:59:47;;;;;;;3.78;1.83;;;;;;;24.48;78.86;99464.66;714636;1200;113019;-76
2021/08/07 10:14:50;;;;;;;19.58;2.65;;;;;;;25.22;77.90;99466.13;715488;1177;113997;-75
2021/08/07 10:29:54;;;;;;;4.90;2.53;;;;;;;25.73;75.88;99463.98;716307;1200;114745;-76
2021/08/07 10:44:58;;;;;;;4.37;2.30;;;;;;;26.21;74.60;99468.64;714703;1200;113340;-77
2021/08/07 11:00:03;;;;;;;7.28;2.90;;;;;;;26.15;71.25;99486.62;714141;1202;114256;-70
2021/08/07 11:15:08;;;;;;;4.23;2.28;;;;;;;26.79;70.26;99478.67;715554;1177;113719;-83
2021/08/07 11:30:36;;;;;;;2.87;2.23;;;;;;;26.78;68.66;99495.88;715591;1200;115093;-78
2021/08/07 11:45:39;;;;;;;3.03;2.10;;;;;;;26.81;67.44;99479.23;714915;1200;114637;-78
2021/08/07 12:00:42;;;;;;;5.20;3.95;;;;;;;28.25;66.78;99484.87;714278;1177;114177;-78
2021/08/07 12:16:00;;;;;;;6.70;4.53;;;;;;;26.55;66.83;99485.27;715368;1202;114190;-77
2021/08/07 12:31:03;;;;;;;3.55;3.00;;;;;;;27.70;65.70;99488.11;714732;1202;114123;-77
2021/08/07 12:46:09;;;;;;;6.48;3.93;;;;;;;27.42;66.89;99470.55;714491;1184;114512;-75
2021/08/07 13:01:16;;;;;;;5.97;3.40;;;;;;;26.96;66.33;99494.63;717003;1199;114099;-75
2021/08/07 13:16:54;;;;;;;3.20;2.70;;;;;;;26.94;67.47;99486.02;716423;1200;114151;-72
2021/08/07 13:31:56;;;;;;;4.97;3.80;;;;;;;28.13;66.58;99484.36;715241;1200;113699;-73
2021/08/07 13:47:01;;;;;;;3.20;2.48;;;;;;;28.59;64.92;99486.16;714771;1202;114233;-73
2021/08/07 14:02:05;;;;;;;3.20;2.33;;;;;;;29.49;64.15;99487.13;714446;1200;114878;-74
2021/08/07 14:17:08;;;;;;;4.73;2.45;;;;;;;29.51;62.59;99493.86;715272;1177;113806;-74
2021/08/07 14:32:10;;;;;;;3.43;2.28;;;;;;;30.83;60.75;99507.55;715946;1200;113920;-74
2021/08/07 14:47:12;;;;;;;26.20;6.00;;;;;;;33.10;55.30;99493.02;714288;1200;114817;-72
2021/08/07 15:02:15;;;;;;;4.98;4.10;;;;;;;29.13;60.83;99474.61;714484;1203;114463;-72
2021/08/07 15:17:17;;;;;;;11.90;7.57;;;;;;;28.34;62.29;99485.92;714508;1200;115182;-74
2021/08/07 15:32:19;;;;;;;2.87;2.50;;;;;;;28.02;62.27;99497.04;714464;1202;113663;-79
2021/08/07 15:47:21;;;;;;;3.88;2.50;;;;;;;27.55;63.62;99490.77;716193;1202;113593;-82
2021/08/07 16:02:24;;;;;;;6.03;2.78;;;;;;;27.61;64.89;99488.89;715638;1178;113657;-77
2021/08/07 16:17:26;;;;;;;4.10;2.80;;;;;;;27.37;64.52;99490.22;715456;1202;113627;-79
2021/08/07 16:32:30;;;;;;;5.45;3.10;;;;;;;26.98;66.20;99482.52;714672;1200;114358;-80
2021/08/07 16:47:32;;;;;;;34.13;20.03;;;;;;;26.70;68.01;99494.49;715819;1202;114128;-79
2021/08/07 17:02:34;;;;;;;19.30;16.57;;;;;;;26.06;69.72;99502.43;715140;1177;114054;-79
2021/08/07 17:17:57;;;;;;;3.83;3.20;;;;;;;25.34;72.76;99499.05;714262;1200;114925;-79
2021/08/07 17:33:00;;;;;;;3.30;2.45;;;;;;;24.84;75.25;99519.61;714181;1200;114474;-79
2021/08/07 17:48:06;;;;;;;4.45;3.90;;;;;;;24.39;77.86;99517.89;714539;1200;113693;-76
2021/08/07 18:03:08;;;;;;;31.98;23.88;;;;;;;23.88;81.15;99525.88;715046;1200;113546;-78
2021/08/07 18:18:11;;;;;;;24.55;16.35;;;;;;;23.28;84.65;99537.88;715546;1202;114093;-77
2021/08/07 18:33:13;;;;;;;14.33;9.50;;;;;;;22.87;87.59;99549.34;715024;1200;114425;-78
2021/08/07 18:48:17;;;;;;;10.78;7.13;;;;;;;22.32;91.42;99552.33;716147;1195;113943;-76
2021/08/07 19:03:21;;;;;;;6.10;4.57;;;;;;;21.98;93.97;99555.49;714486;1182;115006;-79
2021/08/07 19:18:25;;;;;;;6.78;4.38;;;;;;;21.73;95.33;99553.78;714372;1200;115174;-76
2021/08/07 19:33:27;;;;;;;6.18;3.38;;;;;;;21.51;97.75;99548.11;714175;1177;113657;-76
2021/08/07 19:48:29;;;;;;;4.40;3.30;;;;;;;21.40;98.03;99563.00;714245;1177;113045;-75
2021/08/07 20:03:34;;;;;;;7.53;3.75;;;;;;;21.27;97.79;99573.83;714458;1200;114454;-77
2021/08/07 20:18:37;;;;;;;6.65;3.98;;;;;;;21.00;98.52;99574.13;714386;1177;113945;-78
2021/08/07 20:33:39;;;;;;;4.07;3.27;;;;;;;20.85;98.53;99576.33;715776;1200;113788;-76
2021/08/07 20:48:41;;;;;;;4.88;3.23;;;;;;;20.86;97.68;99572.63;715190;1176;114715;-75
2021/08/07 21:03:43;;;;;;;4.00;2.98;;;;;;;20.74;97.65;99597.33;714672;1200;113844;-76
2021/08/07 21:18:46;;;;;;;4.93;3.00;;;;;;;20.57;97.94;99577.58;715069;1180;114725;-76
2021/08/07 21:33:48;;;;;;;5.73;3.20;;;;;;;20.15;99.08;99574.63;714943;1180;113845;-76
2021/08/07 21:48:50;;;;;;;6.90;3.23;;;;;;;20.09;99.82;99590.42;714410;1204;113953;-75
2021/08/07 22:03:52;;;;;;;8.10;3.63;;;;;;;19.88;100.00;99588.91;714687;1202;114340;-74
2021/08/07 22:18:55;;;;;;;8.87;4.13;;;;;;;19.43;100.00;99597.67;714677;1202;114838;-75
2021/08/07 22:33:57;;;;;;;8.78;4.15;;;;;;;19.22;100.00;99590.78;714265;1200;114512;-76
2021/08/07 22:49:00;;;;;;;7.03;3.98;;;;;;;19.01;100.00;99565.28;713910;1193;113972;-76
2021/08/07 23:04:02;;;;;;;6.33;4.18;;;;;;;18.76;100.00;99592.47;714154;1205;114358;-75
2021/08/07 23:19:05;;;;;;;4.78;4.28;;;;;;;18.70;100.00;99608.41;714019;1200;114419;-75
2021/08/07 23:34:07;;;;;;;8.38;5.33;;;;;;;18.41;100.00;99595.34;714160;1200;115363;-75
2021/08/07 23:49:09;;;;;;;5.03;4.53;;;;;;;18.41;100.00;99552.86;714340;1201;115860;-76
